Time;durP1;ratioP1;P1;durP2;ratioP2;P2;SDS_P1;SDS_P2;PMS_P1;PMS_P2;Temp;Humidity;BMP_temperature;BMP_pressure;BME280_temperature;BME280_humidity;BME280_pressure;Samples;Min_cycle;Max_cycle;Signal;HPM_P1;HPM_P2
2021/12/01 00:00:50;;;;;;;0.73;0.73;;;;;;;4.77;100.00;97644.81;5133220;27;20212;-65
2021/12/01 00:03:17;;;;;;;0.80;0.80;;;;;;;4.86;100.00;97650.41;5130762;27;20580;-64
2021/12/01 00:05:43;;;;;;;0.80;0.80;;;;;;;4.80;100.00;97647.25;5133758;27;20207;-64
2021/12/01 00:08:11;;;;;;;0.93;0.90;;;;;;;4.63;100.00;97644.69;5133530;27;20280;-64
2021/12/01 00:10:39;;;;;;;0.90;0.80;;;;;;;4.66;100.00;97637.53;5133560;27;20255;-64
2021/12/01 00:13:09;;;;;;;0.90;0.90;;;;;;;4.69;100.00;97642.59;5130584;27;20585;-64
2021/12/01 00:15:36;;;;;;;0.80;0.80;;;;;;;4.65;100.00;97629.78;5133218;27;20215;-64
2021/12/01 00:18:03;;;;;;;0.97;0.87;;;;;;;4.69;100.00;97636.50;5136381;27;20214;-64
2021/12/01 00:20:30;;;;;;;1.53;0.97;;;;;;;4.70;100.00;97633.81;5136337;27;20233;-62
2021/12/01 00:22:56;;;;;;;1.40;0.90;;;;;;;4.70;100.00;97627.75;5135890;27;20218;-62
2021/12/01 00:25:26;;;;;;;0.90;0.90;;;;;;;4.70;100.00;97627.75;5134568;27;20206;-62
2021/12/01 00:27:55;;;;;;;0.90;0.90;;;;;;;4.61;100.00;97633.47;5135972;27;20215;-62
2021/12/01 00:30:22;;;;;;;0.90;0.90;;;;;;;4.60;100.00;97631.78;5135826;27;20234;-62
2021/12/01 00:32:49;;;;;;;1.03;0.93;;;;;;;4.58;100.00;97631.03;5133147;27;20641;-62
2021/12/01 00:35:16;;;;;;;0.80;0.80;;;;;;;4.55;100.00;97634.66;5135787;27;20219;-62
2021/12/01 00:37:43;;;;;;;1.30;1.20;;;;;;;4.49;100.00;97632.34;5135853;27;20209;-62
2021/12/01 00:40:12;;;;;;;0.87;0.87;;;;;;;4.56;100.00;97628.47;5135835;27;20211;-62
2021/12/01 00:42:41;;;;;;;1.10;1.00;;;;;;;4.57;100.00;97621.47;5131846;27;20206;-62
2021/12/01 00:45:12;;;;;;;1.20;1.10;;;;;;;4.44;100.00;97613.44;5132677;27;20242;-62
2021/12/01 00:47:43;;;;;;;2.50;1.13;;;;;;;4.46;100.00;97610.75;5132936;27;20222;-62
2021/12/01 00:50:11;;;;;;;2.87;1.20;;;;;;;4.47;100.00;97609.81;5131731;27;20269;-62
2021/12/01 00:52:37;;;;;;;0.80;0.80;;;;;;;4.48;100.00;97596.66;5129347;27;20272;-62
2021/12/01 00:55:05;;;;;;;1.57;1.00;;;;;;;4.49;100.00;97597.50;5132789;27;20216;-62
2021/12/01 00:57:31;;;;;;;0.90;0.90;;;;;;;4.48;100.00;97595.81;5129808;27;20215;-62
2021/12/01 00:59:59;;;;;;;0.80;0.80;;;;;;;4.53;100.00;97596.41;5135586;27;20214;-62
2021/12/01 01:02:26;;;;;;;0.80;0.80;;;;;;;4.50;100.00;97592.19;5135469;27;20576;-62
2021/12/01 01:04:52;;;;;;;0.93;0.93;;;;;;;4.46;100.00;97587.19;5135360;27;20216;-62
2021/12/01 01:07:19;;;;;;;1.10;1.00;;;;;;;4.48;100.00;97591.44;5135134;27;20217;-62
2021/12/01 01:09:45;;;;;;;1.10;0.90;;;;;;;4.49;100.00;97587.03;5135320;27;20636;-62
2021/12/01 01:17:45;;;;;;;0.60;0.60;;;;;;;4.42;100.00;97576.06;5133582;27;20210;-62
2021/12/01 01:20:14;;;;;;;0.80;0.80;;;;;;;4.46;100.00;97574.13;5134982;27;20256;-62
2021/12/01 01:22:41;;;;;;;0.83;0.83;;;;;;;4.44;100.00;97574.19;5134802;27;20207;-62
2021/12/01 01:25:10;;;;;;;1.30;0.80;;;;;;;4.46;100.00;97567.09;5135025;27;20214;-62
2021/12/01 01:27:37;;;;;;;1.93;0.80;;;;;;;4.48;100.00;97573.13;5134693;27;20256;-62
2021/12/01 01:30:05;;;;;;;0.80;0.80;;;;;;;4.38;100.00;97574.53;5134902;27;20242;-64
2021/12/01 01:32:33;;;;;;;0.93;0.90;;;;;;;4.36;100.00;97565.06;5134934;27;20214;-63
2021/12/01 01:35:01;;;;;;;0.97;0.87;;;;;;;4.42;100.00;97570.81;5134509;27;20211;-62
2021/12/01 01:37:27;;;;;;;3.40;1.10;;;;;;;4.37;100.00;97578.06;5134829;27;20577;-62
2021/12/01 01:39:54;;;;;;;0.70;0.70;;;;;;;4.34;100.00;97569.53;5134908;27;20652;-62
2021/12/01 01:42:21;;;;;;;0.90;0.90;;;;;;;4.39;100.00;97570.97;5134222;27;20710;-62
2021/12/01 01:44:47;;;;;;;1.13;1.03;;;;;;;4.32;100.00;97561.78;5133000;27;20604;-61
2021/12/01 01:47:14;;;;;;;1.40;1.00;;;;;;;4.37;100.00;97562.38;5134319;27;20688;-62
2021/12/01 01:49:48;;;;;;;0.90;0.90;;;;;;;4.37;100.00;97557.16;5134472;27;20233;-62
2021/12/01 01:52:16;;;;;;;0.90;0.90;;;;;;;4.47;100.00;97550.47;5134006;27;20214;-62
2021/12/01 01:54:43;;;;;;;1.30;1.10;;;;;;;4.44;100.00;97550.66;5134368;27;20210;-62
2021/12/01 01:57:09;;;;;;;1.13;1.00;;;;;;;4.44;100.00;97548.03;5134242;27;20213;-62
2021/12/01 01:59:36;;;;;;;2.07;1.10;;;;;;;4.37;100.00;97538.84;5131402;27;20206;-62
2021/12/01 02:02:03;;;;;;;1.17;1.00;;;;;;;4.45;100.00;97544.47;5131209;27;20671;-62
2021/12/01 02:04:33;;;;;;;1.23;1.13;;;;;;;4.41;100.00;97537.72;5131318;27;20201;-62
2021/12/01 02:07:01;;;;;;;1.17;1.00;;;;;;;4.51;100.00;97527.59;5129364;27;20216;-61
2021/12/01 02:09:29;;;;;;;1.07;1.00;;;;;;;4.50;100.00;97539.84;5129136;27;20229;-62
2021/12/01 02:11:57;;;;;;;1.33;1.20;;;;;;;4.55;100.00;97529.97;5133249;27;20225;-62
2021/12/01 02:14:24;;;;;;;1.60;1.40;;;;;;;4.57;100.00;97522.88;5133790;27;20219;-62
2021/12/01 02:16:54;;;;;;;1.77;1.17;;;;;;;4.62;100.00;97523.47;5133766;27;20216;-62
2021/12/01 02:19:21;;;;;;;1.93;1.30;;;;;;;4.63;100.00;97513.84;5120354;27;20216;-62
2021/12/01 02:21:49;;;;;;;1.30;1.20;;;;;;;4.63;100.00;97504.22;5134068;27;20217;-62
2021/12/01 02:24:17;;;;;;;1.10;1.10;;;;;;;4.68;100.00;97502.19;5133992;27;20214;-62
2021/12/01 02:26:47;;;;;;;1.60;1.30;;;;;;;4.68;100.00;97502.19;5133699;27;20221;-62
2021/12/01 02:29:15;;;;;;;1.50;1.40;;;;;;;4.64;100.00;97503.28;5120554;27;20212;-62
2021/12/01 02:31:44;;;;;;;1.30;1.20;;;;;;;4.69;100.00;97496.03;5134025;28;20214;-62
2021/12/01 02:34:16;;;;;;;1.57;1.30;;;;;;;4.68;100.00;97499.59;5133887;28;20307;-62
2021/12/01 02:36:45;;;;;;;2.37;1.40;;;;;;;4.68;100.00;97489.13;5129508;28;20223;-62
2021/12/01 02:39:15;;;;;;;1.37;1.10;;;;;;;4.74;100.00;97488.78;5133635;28;20219;-62
2021/12/01 02:41:43;;;;;;;1.57;1.47;;;;;;;4.77;100.00;97480.72;5134135;28;20209;-62
2021/12/01 02:44:11;;;;;;;1.70;1.60;;;;;;;4.75;100.00;97468.66;5133605;28;20235;-62
2021/12/01 02:46:38;;;;;;;1.60;1.37;;;;;;;4.73;100.00;97471.38;5133798;28;20221;-62
2021/12/01 02:49:05;;;;;;;1.60;1.50;;;;;;;4.66;100.00;97461.34;5133807;28;20220;-62
2021/12/01 02:51:34;;;;;;;1.30;1.20;;;;;;;4.58;100.00;97459.16;5133824;28;20574;-62
2021/12/01 02:54:01;;;;;;;1.20;1.13;;;;;;;4.64;100.00;97458.81;5133455;27;20218;-63
2021/12/01 02:56:30;;;;;;;2.20;1.00;;;;;;;4.70;100.00;97455.84;5133347;28;20675;-63
2021/12/01 02:58:59;;;;;;;1.27;1.17;;;;;;;4.68;100.00;97442.00;5133663;28;20211;-63
2021/12/01 03:01:26;;;;;;;1.30;1.20;;;;;;;4.74;100.00;97446.03;5132137;27;20205;-63
2021/12/01 03:03:53;;;;;;;1.20;1.10;;;;;;;4.80;100.00;97446.53;5133536;27;20202;-63
2021/12/01 03:06:22;;;;;;;1.30;1.03;;;;;;;4.74;100.00;97435.56;5137103;27;20207;-63
2021/12/01 03:08:49;;;;;;;1.20;1.10;;;;;;;4.80;100.00;97436.06;5137969;27;20271;-63
2021/12/01 03:11:17;;;;;;;1.63;1.03;;;;;;;4.82;100.00;97434.19;5137607;27;20233;-63
2021/12/01 03:13:45;;;;;;;1.10;1.00;;;;;;;4.78;100.00;97427.47;5137668;27;20221;-63
2021/12/01 03:16:11;;;;;;;1.20;1.10;;;;;;;4.87;100.00;97421.69;5137498;27;20225;-63
2021/12/01 03:18:38;;;;;;;1.20;1.00;;;;;;;4.87;100.00;97420.84;5137466;27;20639;-63
2021/12/01 03:21:05;;;;;;;1.50;1.40;;;;;;;4.83;100.00;97412.31;5137478;27;20233;-63
2021/12/01 03:23:31;;;;;;;1.10;1.00;;;;;;;4.84;100.00;97407.94;5137411;27;20210;-63
2021/12/01 03:25:58;;;;;;;0.87;0.83;;;;;;;4.84;100.00;97400.91;5135346;27;20215;-63
2021/12/01 03:28:25;;;;;;;1.10;1.10;;;;;;;4.86;100.00;97399.06;5135588;27;20243;-65
2021/12/01 03:30:53;;;;;;;0.83;0.80;;;;;;;4.86;100.00;97396.44;5137317;27;20243;-63
2021/12/01 03:33:22;;;;;;;1.20;1.10;;;;;;;4.91;100.00;97401.41;5137232;27;20222;-64
2021/12/01 03:35:52;;;;;;;1.10;1.00;;;;;;;4.87;100.00;97403.38;5136904;27;20220;-64
2021/12/01 03:38:21;;;;;;;1.27;1.17;;;;;;;4.87;100.00;97392.91;5136844;27;20225;-64
2021/12/01 03:40:49;;;;;;;0.87;0.87;;;;;;;4.93;100.00;97387.31;5136893;27;20218;-63
2021/12/01 03:43:16;;;;;;;0.80;0.80;;;;;;;4.96;100.00;97388.91;5136994;27;20221;-64
2021/12/01 03:45:43;;;;;;;0.93;0.93;;;;;;;4.97;100.00;97386.19;5137035;27;20245;-63
2021/12/01 03:48:11;;;;;;;1.00;0.90;;;;;;;5.03;100.00;97377.13;5136894;27;20296;-64
2021/12/01 03:50:39;;;;;;;1.20;1.10;;;;;;;5.05;100.00;97368.25;5136869;27;20714;-64
2021/12/01 03:53:06;;;;;;;0.80;0.80;;;;;;;5.10;100.00;97376.69;5135120;27;21609;-63
2021/12/01 03:55:34;;;;;;;1.00;1.00;;;;;;;5.08;100.00;97373.28;5136679;27;20222;-64
2021/12/01 03:58:00;;;;;;;1.87;1.10;;;;;;;5.00;100.00;97375.53;5136474;27;20280;-64
2021/12/01 04:00:27;;;;;;;1.20;1.10;;;;;;;5.03;100.00;97366.66;5136523;27;20663;-64
2021/12/01 04:02:53;;;;;;;1.57;1.23;;;;;;;5.02;100.00;97363.19;5136641;27;20214;-63
2021/12/01 04:05:21;;;;;;;1.10;1.00;;;;;;;5.06;100.00;97356.84;5136292;27;20290;-64
2021/12/01 04:07:48;;;;;;;0.97;0.97;;;;;;;4.99;100.00;97352.91;5136725;27;20211;-64
2021/12/01 04:10:17;;;;;;;1.33;1.10;;;;;;;5.00;100.00;97343.28;5136376;27;20240;-63
2021/12/01 04:12:45;;;;;;;0.90;0.90;;;;;;;4.96;100.00;97334.75;5136415;27;20225;-64
2021/12/01 04:15:14;;;;;;;0.90;0.90;;;;;;;4.92;100.00;97329.78;5136003;27;20225;-64
2021/12/01 04:17:42;;;;;;;1.73;1.17;;;;;;;4.96;100.00;97324.28;5136318;27;20207;-64
2021/12/01 04:20:12;;;;;;;1.63;1.03;;;;;;;4.96;100.00;97312.97;5134342;27;20266;-64
2021/12/01 04:22:40;;;;;;;2.00;1.10;;;;;;;4.97;100.00;97312.03;5136357;27;20255;-64
2021/12/01 04:25:08;;;;;;;1.00;0.90;;;;;;;5.02;100.00;97308.19;5136100;27;20290;-64
2021/12/01 04:27:34;;;;;;;1.30;1.10;;;;;;;5.11;100.00;97315.50;5136049;27;20714;-64
2021/12/01 04:30:01;;;;;;;1.40;1.30;;;;;;;5.09;100.00;97301.69;5136002;27;20241;-64
2021/12/01 04:32:28;;;;;;;1.43;0.90;;;;;;;5.13;100.00;97297.91;5136007;27;20211;-64
2021/12/01 04:34:56;;;;;;;1.20;1.10;;;;;;;5.07;100.00;97293.06;5135851;27;20297;-64
2021/12/01 04:37:23;;;;;;;1.17;1.07;;;;;;;5.07;100.00;97290.44;5136133;27;20215;-64
2021/12/01 04:39:51;;;;;;;1.00;1.00;;;;;;;5.13;100.00;97282.19;5136040;27;20254;-64
2021/12/01 04:42:17;;;;;;;1.00;1.00;;;;;;;5.21;100.00;97279.97;5134520;27;20668;-64
2021/12/01 04:44:44;;;;;;;1.07;0.97;;;;;;;5.30;100.00;97276.78;5133118;27;20247;-64
2021/12/01 04:47:13;;;;;;;1.23;1.13;;;;;;;5.31;100.00;97265.34;5135523;27;20222;-65
2021/12/01 04:49:40;;;;;;;1.70;1.30;;;;;;;5.35;100.00;97261.63;5135696;27;20219;-65
2021/12/01 04:52:08;;;;;;;1.10;1.00;;;;;;;5.35;100.00;97248.53;5135250;27;20733;-64
2021/12/01 04:54:36;;;;;;;1.00;0.90;;;;;;;5.34;100.00;97240.75;5135564;27;20223;-65
2021/12/01 04:57:05;;;;;;;1.30;1.20;;;;;;;5.36;100.00;97241.47;5135305;27;20673;-65
2021/12/01 04:59:33;;;;;;;1.37;1.10;;;;;;;5.37;100.00;97228.28;5135580;27;20233;-64
2021/12/01 05:02:00;;;;;;;2.07;1.20;;;;;;;5.38;100.00;97224.72;5135303;27;20699;-64
2021/12/01 05:04:27;;;;;;;1.27;1.17;;;;;;;5.35;100.00;97219.69;5135041;27;20248;-65
2021/12/01 05:06:54;;;;;;;1.20;1.10;;;;;;;5.38;100.00;97216.88;5135186;27;20228;-64
2021/12/01 05:09:20;;;;;;;1.20;1.10;;;;;;;5.41;100.00;97198.34;5135125;27;20239;-64
2021/12/01 05:11:47;;;;;;;1.30;1.20;;;;;;;5.42;100.00;97199.19;5133547;27;20243;-65
2021/12/01 05:14:15;;;;;;;1.43;1.10;;;;;;;5.47;100.00;97195.34;5134799;27;20225;-65
2021/12/01 05:16:43;;;;;;;1.20;1.10;;;;;;;5.39;100.00;97195.00;5134748;27;20698;-65
2021/12/01 05:19:11;;;;;;;1.30;1.00;;;;;;;5.31;100.00;97197.25;5135208;27;20227;-65
2021/12/01 05:21:38;;;;;;;1.17;1.10;;;;;;;5.36;100.00;97195.19;5135116;27;20232;-64
2021/12/01 05:24:05;;;;;;;1.37;1.20;;;;;;;5.34;100.00;97183.13;5135052;27;20215;-65
2021/12/01 05:26:32;;;;;;;1.20;1.10;;;;;;;5.39;100.00;97186.28;5134906;27;20214;-65
2021/12/01 05:28:59;;;;;;;3.17;1.30;;;;;;;5.35;100.00;97188.25;5134662;27;20570;-65
2021/12/01 05:31:27;;;;;;;1.80;1.03;;;;;;;5.45;100.00;97184.09;5135112;27;20261;-65
2021/12/01 05:33:54;;;;;;;1.33;1.00;;;;;;;5.49;100.00;97179.53;5134754;27;20657;-65
2021/12/01 05:36:21;;;;;;;1.13;1.03;;;;;;;5.51;100.00;97167.16;5134699;27;20210;-65
2021/12/01 05:38:47;;;;;;;1.00;0.90;;;;;;;5.50;100.00;97163.69;5133438;27;20229;-65
2021/12/01 05:41:14;;;;;;;1.27;1.17;;;;;;;5.53;100.00;97168.75;5134431;27;20216;-65
2021/12/01 05:43:41;;;;;;;1.63;0.90;;;;;;;5.51;100.00;97172.41;5134098;27;20218;-64
2021/12/01 05:46:07;;;;;;;3.70;1.00;;;;;;;5.56;100.00;97168.53;5134406;27;20314;-65
2021/12/01 05:48:35;;;;;;;0.90;0.87;;;;;;;5.67;100.00;97163.44;5134467;27;20222;-64
2021/12/01 05:51:02;;;;;;;0.87;0.80;;;;;;;5.62;100.00;97162.06;5134430;27;20355;-66
2021/12/01 05:53:28;;;;;;;0.73;0.73;;;;;;;5.56;100.00;97152.81;5134394;27;20212;-65
2021/12/01 05:55:55;;;;;;;0.83;0.80;;;;;;;5.57;100.00;97146.63;5134491;27;20212;-64
2021/12/01 05:58:22;;;;;;;0.60;0.60;;;;;;;5.65;100.00;97147.00;5131640;27;20216;-65
2021/12/01 06:00:49;;;;;;;0.70;0.70;;;;;;;5.73;100.00;97144.69;5134303;27;20213;-64
2021/12/01 06:03:15;;;;;;;0.73;0.70;;;;;;;5.65;100.00;97141.75;5132591;27;20214;-64
2021/12/01 06:05:44;;;;;;;0.70;0.70;;;;;;;5.60;100.00;97141.19;5133849;27;20289;-65
2021/12/01 06:08:11;;;;;;;0.67;0.67;;;;;;;5.69;100.00;97135.34;5134401;27;20218;-67
2021/12/01 06:10:39;;;;;;;0.70;0.70;;;;;;;5.73;100.00;97130.78;5134001;27;20705;-65
2021/12/01 06:13:06;;;;;;;0.60;0.60;;;;;;;5.77;100.00;97127.84;5131533;27;20248;-64
2021/12/01 06:15:33;;;;;;;0.90;0.80;;;;;;;5.76;100.00;97120.06;5134086;27;20211;-65
2021/12/01 06:17:59;;;;;;;0.60;0.60;;;;;;;5.74;100.00;97111.47;5133868;27;20215;-64
2021/12/01 06:20:27;;;;;;;0.53;0.53;;;;;;;5.82;100.00;97110.06;5133957;27;20220;-67
2021/12/01 06:22:55;;;;;;;0.70;0.70;;;;;;;5.81;100.00;97112.78;5131275;27;20216;-65
2021/12/01 06:25:21;;;;;;;0.57;0.57;;;;;;;5.80;100.00;97105.84;5134045;27;20215;-64
2021/12/01 06:27:48;;;;;;;0.80;0.80;;;;;;;5.76;100.00;97102.56;5133952;27;20212;-65
2021/12/01 06:30:15;;;;;;;1.37;0.80;;;;;;;5.78;100.00;97108.53;5132330;27;20242;-64
2021/12/01 06:32:41;;;;;;;0.60;0.60;;;;;;;5.79;100.00;97104.97;5133953;28;20212;-64
2021/12/01 06:35:10;;;;;;;1.03;0.80;;;;;;;5.79;100.00;97104.13;5133927;28;20215;-65
2021/12/01 06:37:37;;;;;;;1.00;0.70;;;;;;;5.80;100.00;97095.38;5133870;28;20216;-64
2021/12/01 06:40:06;;;;;;;1.00;0.90;;;;;;;5.78;100.00;97091.97;5135065;27;20211;-65
2021/12/01 06:42:35;;;;;;;1.00;0.80;;;;;;;5.69;100.00;97095.19;5135467;27;20209;-64
2021/12/01 06:45:01;;;;;;;0.70;0.70;;;;;;;5.52;100.00;97084.97;5138307;27;20700;-64
2021/12/01 06:47:28;;;;;;;0.70;0.70;;;;;;;5.40;100.00;97070.91;5138080;27;20212;-64
2021/12/01 06:49:55;;;;;;;0.80;0.80;;;;;;;5.46;100.00;97077.53;5137732;27;20216;-64
2021/12/01 06:52:21;;;;;;;0.77;0.60;;;;;;;5.53;100.00;97063.06;5137574;27;20239;-64
2021/12/01 06:54:48;;;;;;;0.83;0.70;;;;;;;5.55;100.00;97062.03;5136148;27;20212;-64
2021/12/01 06:57:16;;;;;;;1.53;0.60;;;;;;;5.56;100.00;97053.22;5137950;27;20222;-67
2021/12/01 06:59:42;;;;;;;1.43;0.70;;;;;;;5.69;100.00;97056.72;5137985;27;20208;-66
2021/12/01 07:02:09;;;;;;;1.47;0.67;;;;;;;5.76;100.00;97042.28;5137605;27;20215;-64
2021/12/01 07:04:35;;;;;;;0.87;0.77;;;;;;;5.89;100.00;97047.53;5137745;27;20204;-64
2021/12/01 07:07:02;;;;;;;1.20;0.70;;;;;;;5.95;100.00;97036.63;5137800;27;20215;-65
2021/12/01 07:09:29;;;;;;;0.87;0.60;;;;;;;5.96;100.00;97036.53;5137420;27;20206;-67
2021/12/01 07:11:55;;;;;;;1.07;0.70;;;;;;;6.06;100.00;97036.75;5134295;27;20247;-64
2021/12/01 07:14:23;;;;;;;0.60;0.60;;;;;;;6.10;100.00;97038.22;5137341;27;20223;-65
2021/12/01 07:16:50;;;;;;;1.10;0.63;;;;;;;6.16;100.00;97033.38;5137789;27;20208;-65
2021/12/01 07:19:16;;;;;;;0.73;0.70;;;;;;;6.21;100.00;97027.81;5137517;27;20209;-65
2021/12/01 07:21:43;;;;;;;1.20;0.50;;;;;;;6.21;100.00;97012.06;5135973;27;20219;-64
2021/12/01 07:24:10;;;;;;;0.60;0.60;;;;;;;6.23;100.00;97015.44;5137413;27;20315;-64
2021/12/01 07:26:36;;;;;;;0.63;0.63;;;;;;;6.26;100.00;97016.06;5137307;27;20212;-64
2021/12/01 07:29:03;;;;;;;1.23;0.80;;;;;;;6.29;100.00;97010.59;5137538;27;20219;-64
2021/12/01 07:31:31;;;;;;;1.30;0.60;;;;;;;6.34;100.00;96997.19;5132212;27;20244;-64
2021/12/01 07:33:58;;;;;;;0.70;0.70;;;;;;;6.35;100.00;96989.19;5133724;27;20215;-64
2021/12/01 07:36:24;;;;;;;0.70;0.70;;;;;;;6.36;100.00;96985.59;5134416;27;20207;-64
2021/12/01 07:38:53;;;;;;;0.77;0.60;;;;;;;6.42;100.00;96966.81;5134394;27;20218;-64
2021/12/01 07:41:19;;;;;;;0.50;0.50;;;;;;;6.41;100.00;96964.31;5132222;27;20218;-64
2021/12/01 07:43:46;;;;;;;1.07;0.63;;;;;;;6.46;100.00;96970.88;5133291;27;20537;-64
2021/12/01 07:46:13;;;;;;;1.23;0.60;;;;;;;6.52;100.00;96957.34;5132591;27;20220;-64
2021/12/01 07:48:40;;;;;;;0.80;0.70;;;;;;;6.58;100.00;96953.41;5131090;27;20215;-64
2021/12/01 07:51:07;;;;;;;0.60;0.60;;;;;;;6.59;100.00;96940.19;5130608;27;20231;-64
2021/12/01 07:53:34;;;;;;;0.60;0.60;;;;;;;6.68;100.00;96933.44;5131839;27;20314;-64
2021/12/01 07:56:02;;;;;;;0.77;0.60;;;;;;;6.72;100.00;96925.22;5132376;27;20221;-64
2021/12/01 07:58:29;;;;;;;2.20;0.70;;;;;;;6.73;100.00;96926.88;5132330;27;20299;-65
2021/12/01 08:00:56;;;;;;;0.50;0.50;;;;;;;6.72;100.00;96914.72;5131019;27;20209;-65
2021/12/01 08:03:23;;;;;;;0.67;0.60;;;;;;;6.76;100.00;96910.94;5131223;27;20795;-65
2021/12/01 08:05:51;;;;;;;0.60;0.60;;;;;;;6.76;100.00;96903.06;5135428;27;20212;-64
2021/12/01 08:08:17;;;;;;;0.83;0.60;;;;;;;6.78;100.00;96898.50;5134983;27;20311;-65
2021/12/01 08:10:45;;;;;;;0.60;0.57;;;;;;;6.93;100.00;96897.41;5135052;27;20205;-65
2021/12/01 08:13:11;;;;;;;1.37;0.60;;;;;;;6.95;100.00;96878.91;5135073;27;20244;-64
2021/12/01 08:15:38;;;;;;;0.50;0.50;;;;;;;6.91;100.00;96880.09;5133927;27;20216;-65
2021/12/01 08:18:05;;;;;;;0.63;0.50;;;;;;;7.02;100.00;96870.44;5134888;27;20220;-64
2021/12/01 08:20:33;;;;;;;1.03;0.57;;;;;;;6.99;99.88;96860.19;5134989;27;20206;-65
2021/12/01 08:23:01;;;;;;;0.50;0.50;;;;;;;7.08;99.94;96875.22;5135082;27;20285;-64
2021/12/01 08:25:28;;;;;;;0.60;0.60;;;;;;;7.01;100.00;96871.41;5134731;27;20216;-65
2021/12/01 08:27:54;;;;;;;0.53;0.50;;;;;;;7.13;100.00;96872.25;5132382;27;20209;-65
2021/12/01 08:30:21;;;;;;;0.50;0.50;;;;;;;7.17;100.00;96861.41;5135054;27;20209;-65
2021/12/01 08:32:47;;;;;;;1.10;1.00;;;;;;;7.16;98.53;96856.28;5134513;27;20623;-65
2021/12/01 08:35:15;;;;;;;0.57;0.53;;;;;;;7.24;99.46;96850.31;5134845;27;20208;-65
2021/12/01 08:37:42;;;;;;;0.50;0.50;;;;;;;7.19;99.46;96833.22;5132306;27;20217;-66
2021/12/01 08:40:14;;;;;;;0.50;0.47;;;;;;;7.24;99.35;96836.34;5131683;27;20679;-64
2021/12/01 08:42:41;;;;;;;0.50;0.50;;;;;;;7.32;100.00;96835.78;5133611;27;20237;-65
2021/12/01 08:45:08;;;;;;;0.73;0.53;;;;;;;7.38;100.00;96836.13;5133580;27;20268;-66
2021/12/01 08:47:35;;;;;;;0.40;0.40;;;;;;;7.50;100.00;96830.75;5124752;27;20243;-66
2021/12/01 08:50:02;;;;;;;0.60;0.60;;;;;;;7.62;98.80;96828.97;5115346;27;20577;-65
2021/12/01 08:52:29;;;;;;;0.50;0.50;;;;;;;7.72;98.83;96812.34;5135596;27;20232;-64
2021/12/01 08:54:57;;;;;;;1.17;0.60;;;;;;;7.90;97.86;96812.69;5135746;27;20210;-65
2021/12/01 08:57:25;;;;;;;1.23;0.70;;;;;;;7.85;97.72;96813.03;5134343;27;20209;-65
2021/12/01 08:59:51;;;;;;;0.70;0.70;;;;;;;7.91;98.95;96801.22;5135047;27;20226;-65
2021/12/01 09:02:18;;;;;;;0.57;0.57;;;;;;;7.99;98.28;96804.06;5134014;27;20634;-65
2021/12/01 09:04:48;;;;;;;0.50;0.50;;;;;;;8.08;97.45;96796.28;5133520;27;20225;-65
2021/12/01 09:07:14;;;;;;;1.23;0.47;;;;;;;8.16;97.23;96793.88;5132538;27;20240;-64
2021/12/01 09:09:41;;;;;;;1.20;0.70;;;;;;;8.16;97.92;96782.50;5133582;27;20732;-64
2021/12/01 09:12:09;;;;;;;1.27;0.50;;;;;;;8.25;97.57;96776.50;5135379;27;20298;-65
2021/12/01 09:14:37;;;;;;;1.23;0.60;;;;;;;8.34;96.70;96781.03;5134640;27;20217;-65
2021/12/01 09:17:03;;;;;;;1.67;0.60;;;;;;;8.28;97.27;96776.28;5133185;27;20205;-64
2021/12/01 09:19:30;;;;;;;0.70;0.60;;;;;;;8.35;97.75;96764.28;5134183;27;20574;-64
2021/12/01 09:21:56;;;;;;;0.63;0.47;;;;;;;8.42;96.73;96768.06;5135343;27;20217;-64
2021/12/01 09:24:23;;;;;;;0.90;0.60;;;;;;;8.44;96.13;96771.44;5134842;27;20216;-65
2021/12/01 09:26:50;;;;;;;1.13;0.50;;;;;;;8.40;96.17;96759.47;5135072;27;20223;-65
2021/12/01 09:29:17;;;;;;;0.50;0.50;;;;;;;8.47;95.84;96761.50;5134651;27;20217;-64
2021/12/01 09:31:45;;;;;;;0.50;0.50;;;;;;;8.49;95.40;96753.44;5135853;27;20237;-64
2021/12/01 09:34:12;;;;;;;0.50;0.40;;;;;;;8.49;95.64;96758.72;5119203;27;20209;-64
2021/12/01 09:36:38;;;;;;;1.17;0.50;;;;;;;8.40;94.02;96741.88;5134451;27;20300;-65
2021/12/01 09:39:06;;;;;;;0.77;0.50;;;;;;;8.43;95.24;96736.38;5134677;27;20205;-65
2021/12/01 09:41:33;;;;;;;0.50;0.50;;;;;;;8.52;93.87;96735.59;5135467;27;20206;-64
2021/12/01 09:43:59;;;;;;;0.40;0.40;;;;;;;8.48;95.43;96721.03;5134262;27;20729;-65
2021/12/01 09:46:30;;;;;;;0.87;0.50;;;;;;;8.49;94.21;96721.84;5134212;27;20228;-64
2021/12/01 09:48:58;;;;;;;0.50;0.50;;;;;;;8.48;94.00;96709.66;5134453;27;20592;-64
2021/12/01 09:51:27;;;;;;;0.40;0.40;;;;;;;8.50;94.18;96702.47;5135182;27;20235;-64
2021/12/01 09:53:55;;;;;;;0.30;0.30;;;;;;;8.38;94.63;96716.66;5134131;27;20217;-64
2021/12/01 09:56:24;;;;;;;0.40;0.40;;;;;;;8.42;94.61;96716.28;5134333;27;20213;-64
2021/12/01 09:58:50;;;;;;;0.30;0.30;;;;;;;8.38;96.00;96698.25;5134377;27;20229;-64
2021/12/01 10:01:20;;;;;;;0.57;0.40;;;;;;;8.35;95.39;96698.47;5133718;27;20285;-65
2021/12/01 10:03:47;;;;;;;0.40;0.40;;;;;;;8.35;94.93;96695.84;5122087;27;20216;-64
2021/12/01 10:06:18;;;;;;;0.60;0.47;;;;;;;8.43;95.77;96685.50;5132809;27;20735;-64
2021/12/01 10:08:46;;;;;;;0.30;0.30;;;;;;;8.44;95.72;96693.28;5134224;27;20215;-64
2021/12/01 10:11:15;;;;;;;0.83;0.60;;;;;;;8.41;96.55;96693.56;5132966;27;20217;-65
2021/12/01 10:13:45;;;;;;;0.97;0.50;;;;;;;8.51;97.38;96688.34;5133981;27;20233;-65
2021/12/01 10:16:13;;;;;;;0.30;0.30;;;;;;;8.51;95.33;96685.72;5133790;27;20212;-65
2021/12/01 10:18:42;;;;;;;0.50;0.50;;;;;;;8.59;94.91;96685.91;5134429;27;20217;-65
2021/12/01 10:21:12;;;;;;;0.40;0.40;;;;;;;8.69;94.64;96682.34;5134314;27;20216;-65
2021/12/01 10:23:44;;;;;;;0.47;0.47;;;;;;;8.80;93.48;96668.28;5133746;27;20209;-65
2021/12/01 10:26:17;;;;;;;0.53;0.50;;;;;;;8.73;94.35;96672.41;5134062;27;20593;-64
2021/12/01 10:28:45;;;;;;;0.40;0.40;;;;;;;8.84;93.78;96654.72;5133318;27;20209;-65
2021/12/01 10:31:13;;;;;;;0.70;0.50;;;;;;;8.89;93.91;96646.44;5120042;27;20209;-65
2021/12/01 10:33:40;;;;;;;0.33;0.33;;;;;;;8.97;94.50;96646.59;5133572;27;20237;-65
2021/12/01 10:36:09;;;;;;;0.40;0.40;;;;;;;8.93;92.87;96632.84;5133679;27;20210;-65
2021/12/01 10:38:38;;;;;;;0.40;0.40;;;;;;;8.99;92.48;96628.88;5135048;27;20289;-65
2021/12/01 10:41:08;;;;;;;0.57;0.50;;;;;;;9.03;91.78;96627.63;5120249;27;20667;-65
2021/12/01 10:43:44;;;;;;;0.30;0.30;;;;;;;9.04;91.93;96630.13;5133745;27;20208;-65
2021/12/01 10:46:13;;;;;;;0.40;0.40;;;;;;;9.01;91.92;96619.03;5133726;27;20686;-64
2021/12/01 10:48:41;;;;;;;0.40;0.40;;;;;;;8.95;92.63;96614.28;5134032;27;20580;-65
2021/12/01 10:51:10;;;;;;;0.40;0.40;;;;;;;8.95;92.93;96603.75;5133442;27;20214;-65
2021/12/01 10:53:37;;;;;;;0.40;0.40;;;;;;;9.02;93.23;96603.09;5133343;27;20286;-65
2021/12/01 10:56:08;;;;;;;0.30;0.30;;;;;;;9.11;92.66;96604.09;5133259;27;20219;-65
2021/12/01 10:58:37;;;;;;;0.43;0.40;;;;;;;9.10;93.43;96597.13;5132380;27;20213;-65
2021/12/01 11:01:06;;;;;;;0.30;0.30;;;;;;;9.14;92.44;96590.63;5133601;27;20232;-67
2021/12/01 11:03:35;;;;;;;0.40;0.40;;;;;;;9.11;92.80;96583.00;5133344;27;20238;-65
2021/12/01 11:06:11;;;;;;;1.00;0.30;;;;;;;9.05;93.26;96573.00;5134640;27;20581;-65
2021/12/01 11:08:40;;;;;;;0.40;0.40;;;;;;;9.09;94.02;96569.13;5120455;27;20216;-67
2021/12/01 11:11:10;;;;;;;0.37;0.37;;;;;;;9.12;94.11;96559.13;5133377;27;20220;-65
2021/12/01 11:13:41;;;;;;;0.30;0.30;;;;;;;9.19;93.36;96544.44;5133126;27;20893;-65
2021/12/01 11:16:10;;;;;;;0.30;0.30;;;;;;;9.29;93.37;96544.47;5132183;27;21277;-65
2021/12/01 11:18:39;;;;;;;0.30;0.30;;;;;;;9.22;93.16;96532.78;5123043;27;20303;-65
2021/12/01 11:21:10;;;;;;;0.43;0.43;;;;;;;9.20;95.16;96522.41;5131695;27;20214;-65
2021/12/01 11:23:39;;;;;;;0.37;0.33;;;;;;;9.20;94.63;96525.03;5134140;27;20252;-65
2021/12/01 11:26:09;;;;;;;0.57;0.50;;;;;;;9.14;95.45;96525.59;5132997;27;20753;-65
2021/12/01 11:28:38;;;;;;;0.50;0.30;;;;;;;9.07;97.08;96516.53;5137266;27;20217;-65
2021/12/01 11:31:07;;;;;;;0.97;0.40;;;;;;;9.07;97.09;96515.72;5136921;27;20693;-65
2021/12/01 11:33:34;;;;;;;0.30;0.30;;;;;;;9.14;97.24;96508.94;5138183;27;20244;-65
2021/12/01 11:36:02;;;;;;;0.50;0.50;;;;;;;9.19;97.28;96514.63;5136849;27;20707;-65
2021/12/01 11:38:29;;;;;;;0.30;0.30;;;;;;;9.19;98.30;96501.44;5137356;27;20205;-65
2021/12/01 11:40:57;;;;;;;0.30;0.30;;;;;;;9.18;99.46;96500.59;5137130;27;20577;-65
2021/12/01 11:43:28;;;;;;;0.43;0.43;;;;;;;9.16;99.36;96501.72;5137816;27;20218;-64